Wetterdaten: Donnerstag, 04.06.2015
Datum Zeit Temp. A. Feuchte A. Luftdruck Regen Wind Richtung Richtung Sonnenschein ET UV Solar Taupunkt Windchill Windben Empfang
04.06.2015 00:00 19,7 C 70 % 1017,8 hPa 0,0 l/m 0,0 km/h (0 Bft) O 90 0 min 0,000 mm 0,0 UV-I 0 W/m 14,1 C 19,7 C 0,0 km/h (0 Bft) 0,00 %
04.06.2015 01:00 18,7 C 72 % 1018,2 hPa 0,0 l/m 0,0 km/h (0 Bft) O-SO 120 0 min 0,000 mm 0,0 UV-I 0 W/m 13,5 C 18,7 C 0,0 km/h (0 Bft) 0,00 %
04.06.2015 02:00 18,3 C 74 % 1018,6 hPa 0,0 l/m 0,0 km/h (0 Bft) SO 126 0 min 0,000 mm 0,0 UV-I 0 W/m 13,6 C 18,3 C 0,0 km/h (0 Bft) 0,00 %
04.06.2015 03:00 16,8 C 81 % 1019,3 hPa 0,0 l/m 0,0 km/h (0 Bft) SO 125 0 min 0,000 mm 0,0 UV-I 0 W/m 13,5 C 16,8 C 0,0 km/h (0 Bft) 0,00 %
04.06.2015 04:00 16,3 C 81 % 1019,6 hPa 0,0 l/m 0,0 km/h (0 Bft) O-SO 120 0 min 0,000 mm 0,0 UV-I 0 W/m 13,0 C 16,3 C 0,0 km/h (0 Bft) 0,00 %
04.06.2015 05:00 15,3 C 83 % 1020,1 hPa 0,0 l/m 0,0 km/h (0 Bft) O-SO 120 0 min 0,000 mm 0,0 UV-I 1 W/m 12,4 C 15,3 C 0,0 km/h (0 Bft) 0,00 %
04.06.2015 06:00 16,4 C 81 % 1021,1 hPa 0,0 l/m 0,0 km/h (0 Bft) O-SO 110 60 min 0,000 mm 0,0 UV-I 133 W/m 13,1 C 16,4 C 0,0 km/h (0 Bft) 0,00 %
04.06.2015 07:00 19,4 C 64 % 1021,3 hPa 0,0 l/m 0,0 km/h (0 Bft) O 90 60 min 0,000 mm 1,0 UV-I 345 W/m 12,4 C 19,4 C 0,0 km/h (0 Bft) 0,00 %
04.06.2015 08:00 19,8 C 60 % 1021,2 hPa 0,0 l/m 2,1 km/h (1 Bft) O 90 60 min 0,000 mm 2,0 UV-I 473 W/m 11,8 C 19,8 C 4,0 km/h (1 Bft) 0,00 %
04.06.2015 09:00 20,4 C 58 % 1021,1 hPa 0,0 l/m 0,0 km/h (0 Bft) O-SO 120 60 min 0,000 mm 2,0 UV-I 543 W/m 11,9 C 20,4 C 0,0 km/h (0 Bft) 0,00 %
04.06.2015 10:00 21,8 C 52 % 1020,9 hPa 0,0 l/m 2,9 km/h (1 Bft) S-SO 153 60 min 0,000 mm 3,0 UV-I 629 W/m 11,5 C 21,8 C 7,9 km/h (2 Bft) 0,00 %
04.06.2015 11:00 23,4 C 50 % 1020,7 hPa 0,0 l/m 1,4 km/h (1 Bft) O 90 60 min 0,000 mm 4,0 UV-I 738 W/m 12,4 C 23,4 C 4,0 km/h (1 Bft) 0,00 %
04.06.2015 12:00 24,9 C 46 % 1019,8 hPa 0,0 l/m 6,9 km/h (2 Bft) O 90 60 min 0,000 mm 6,0 UV-I 811 W/m 12,5 C 24,8 C 7,9 km/h (2 Bft) 0,00 %
04.06.2015 13:00 25,5 C 40 % 1019,3 hPa 0,0 l/m 1,4 km/h (1 Bft) O-NO 60 60 min 0,000 mm 6,0 UV-I 867 W/m 10,9 C 25,5 C 4,0 km/h (1 Bft) 0,00 %
04.06.2015 14:00 26,0 C 39 % 1018,5 hPa 0,0 l/m 0,3 km/h (0 Bft) N 359 60 min 0,000 mm 5,0 UV-I 914 W/m 11,0 C 26,0 C 4,0 km/h (1 Bft) 0,00 %
04.06.2015 15:00 26,8 C 38 % 1018,1 hPa 0,0 l/m 0,0 km/h (0 Bft) O 90 60 min 0,000 mm 5,0 UV-I 938 W/m 11,3 C 26,8 C 0,0 km/h (0 Bft) 0,00 %
04.06.2015 16:00 27,9 C 36 % 1017,2 hPa 0,0 l/m 5,5 km/h (1 Bft) O 90 60 min 0,000 mm 4,0 UV-I 918 W/m 11,4 C 27,9 C 7,9 km/h (2 Bft) 0,00 %
04.06.2015 17:00 28,5 C 35 % 1016,4 hPa 0,0 l/m 0,3 km/h (0 Bft) NO 50 60 min 0,000 mm 2,0 UV-I 873 W/m 11,5 C 28,5 C 4,0 km/h (1 Bft) 0,00 %
04.06.2015 18:00 28,1 C 37 % 1015,8 hPa 0,0 l/m 0,6 km/h (0 Bft) O-SO 110 60 min 0,000 mm 1,0 UV-I 780 W/m 12,0 C 28,1 C 4,0 km/h (1 Bft) 0,00 %
04.06.2015 19:00 28,8 C 39 % 1015,3 hPa 0,0 l/m 0,0 km/h (0 Bft) S-SO 160 60 min 0,000 mm 1,0 UV-I 595 W/m 13,4 C 28,8 C 0,0 km/h (0 Bft) 0,00 %
04.06.2015 20:00 26,6 C 41 % 1016,0 hPa 0,0 l/m 0,0 km/h (0 Bft) S-SO 150 60 min 0,000 mm 0,0 UV-I 273 W/m 12,2 C 26,6 C 0,0 km/h (0 Bft) 0,00 %
04.06.2015 21:00 21,7 C 62 % 1017,4 hPa 0,0 l/m 3,2 km/h (1 Bft) NO 40 0 min 0,000 mm 0,0 UV-I 0 W/m 14,1 C 21,7 C 7,9 km/h (2 Bft) 0,00 %
04.06.2015 22:00 19,9 C 69 % 1018,1 hPa 0,0 l/m 0,0 km/h (0 Bft) O-SO 120 0 min 0,000 mm 0,0 UV-I 0 W/m 14,0 C 19,9 C 0,0 km/h (0 Bft) 0,00 %
04.06.2015 23:00 19,1 C 70 % 1018,9 hPa 0,0 l/m 0,0 km/h (0 Bft) SO 140 0 min 0,000 mm 0,0 UV-I 0 W/m 13,5 C 19,1 C 0,0 km/h (0 Bft) 0,00 %
_ Min-Zeit 05:00 17:00 19:00 - 00:00 - - - - - - 13:00 05:00 00:00 00:00
Minimum _ 15,3 C 35 % 1015,3 hPa - 0,0 km/h (0 Bft) - - - - - - 10,9 C 15,3 C 0,0 km/h (0 Bft) 0,00 %
_ Max-Zeit 19:00 05:00 07:00 00:00 12:00 - - 06:00 00:00 12:00 15:00 21:00 19:00 10:00 00:00
Maximum _ 28,8 C 83 % 1021,3 hPa 0,0 l/m 6,9 km/h
O (2 Bft)
- - 60 min 0,000 mm 6,0 UV-I 938 W/m 14,1 C 28,8 C 7,9 km/h
S-SO (2 Bft)
0,00 %
Durchschnitt _ 22,2 C 57 % 1018,8 hPa #0,0 l/m 1,1 km/h (0 Bft) O - #15:00 h #0,000 mm 3,2 UV-I 614 W/m 12,5 C 22,2 C 2,4 km/h (1 Bft) 0,00 %